Time;durP1;ratioP1;P1;durP2;ratioP2;P2;SDS_P1;SDS_P2;PMS_P1;PMS_P2;Temp;Humidity;BMP_temperature;BMP_pressure;BME280_temperature;BME280_humidity;BME280_pressure;Samples;Min_cycle;Max_cycle;Signal;HPM_P1;HPM_P2
2021/12/26 00:01:41;;;;;;;2.08;1.77;;;4.20;99.90;;;;;;4997875;28;20042;-69
2021/12/26 00:04:13;;;;;;;2.35;1.77;;;4.30;99.90;;;;;;4997874;28;20508;-69
2021/12/26 00:06:41;;;;;;;2.38;2.05;;;4.30;99.90;;;;;;4997261;28;20045;-68
2021/12/26 00:09:08;;;;;;;2.45;1.77;;;4.30;99.90;;;;;;4997369;28;20046;-68
2021/12/26 00:11:34;;;;;;;;;;;4.30;99.90;;;;;;4997702;28;20061;-68
2021/12/26 00:14:02;;;;;;;2.88;1.90;;;4.30;99.90;;;;;;4997407;28;20493;-68
2021/12/26 00:16:29;;;;;;;2.75;1.75;;;4.30;99.90;;;;;;4994554;28;20630;-69
2021/12/26 00:18:57;;;;;;;3.50;2.22;;;4.30;99.90;;;;;;4996422;28;20111;-68
2021/12/26 00:21:24;;;;;;;;;;;4.30;99.90;;;;;;4997881;28;20615;-69
2021/12/26 00:23:53;;;;;;;2.17;1.73;;;4.30;99.90;;;;;;4997207;28;19925;-68
2021/12/26 00:26:20;;;;;;;2.92;2.05;;;4.30;99.90;;;;;;4997243;28;20605;-69
2021/12/26 00:28:46;;;;;;;3.25;2.75;;;4.30;99.90;;;;;;4996348;28;20046;-68
2021/12/26 00:31:16;;;;;;;2.00;1.83;;;4.30;99.90;;;;;;4997159;28;20052;-69
2021/12/26 00:33:44;;;;;;;1.83;1.60;;;4.30;99.90;;;;;;4994789;28;20073;-69
2021/12/26 00:36:11;;;;;;;8.80;2.17;;;4.30;99.90;;;;;;4996974;28;20046;-68
2021/12/26 00:38:38;;;;;;;2.83;2.33;;;4.30;99.90;;;;;;4995858;28;20068;-69
2021/12/26 00:41:05;;;;;;;;;;;4.30;99.90;;;;;;4998076;28;20049;-68
2021/12/26 00:43:32;;;;;;;3.13;2.03;;;4.30;99.90;;;;;;4996894;28;20371;-69
2021/12/26 00:45:58;;;;;;;;;;;4.30;99.90;;;;;;4997502;28;20116;-68
2021/12/26 00:48:26;;;;;;;4.03;1.88;;;4.30;99.90;;;;;;5027473;28;19928;-68
2021/12/26 00:50:53;;;;;;;;;;;4.30;99.90;;;;;;4996648;28;20404;-68
2021/12/26 00:53:20;;;;;;;5.95;1.50;;;4.20;99.90;;;;;;4976953;28;20383;-68
2021/12/26 00:55:48;;;;;;;1.42;1.33;;;4.30;99.90;;;;;;5011439;28;20917;-69
2021/12/26 00:58:14;;;;;;;1.25;1.02;;;4.20;99.90;;;;;;5010457;28;20069;-68
2021/12/26 01:00:42;;;;;;;;;;;4.20;99.90;;;;;;5010921;28;20069;-69
2021/12/26 01:03:10;;;;;;;;;;;4.20;99.90;;;;;;4996581;28;20004;-69
2021/12/26 01:05:38;;;;;;;;;;;4.20;99.90;;;;;;4995141;28;19927;-69
2021/12/26 01:08:09;;;;;;;1.52;1.42;;;4.20;99.90;;;;;;4995096;28;20217;-68
2021/12/26 01:10:46;;;;;;;1.73;1.50;;;4.20;99.90;;;;;;4993965;28;20887;-68
2021/12/26 01:13:19;;;;;;;1.70;1.40;;;4.20;99.90;;;;;;4996030;28;20358;-68
2021/12/26 01:15:48;;;;;;;1.83;1.50;;;4.20;99.90;;;;;;4994592;28;20895;-69
2021/12/26 01:18:23;;;;;;;0.90;0.90;;;4.20;99.90;;;;;;5009132;28;20049;-68
2021/12/26 01:20:59;;;;;;;1.30;1.20;;;4.20;99.90;;;;;;5010977;28;20470;-69
2021/12/26 01:23:29;;;;;;;1.98;1.63;;;4.20;99.90;;;;;;5011368;28;20041;-69
2021/12/26 01:25:58;;;;;;;3.42;2.33;;;4.30;99.90;;;;;;4994316;28;20054;-69
2021/12/26 01:28:28;;;;;;;5.57;4.43;;;4.20;99.90;;;;;;5010751;28;20523;-69
2021/12/26 01:30:59;;;;;;;13.02;6.65;;;4.30;99.90;;;;;;5011316;28;20579;-69
2021/12/26 01:33:27;;;;;;;8.07;5.88;;;4.30;99.90;;;;;;4993840;28;20042;-69
2021/12/26 01:36:01;;;;;;;8.07;6.13;;;4.30;99.90;;;;;;5012037;28;20050;-69
2021/12/26 01:39:08;;;;;;;8.10;5.82;;;4.40;99.90;;;;;;4935535;28;20693;-68
2021/12/26 01:42:01;;;;;;;8.18;5.88;;;4.40;99.90;;;;;;4936139;28;20138;-68
2021/12/26 01:44:48;;;;;;;6.75;5.22;;;4.40;99.90;;;;;;4982439;28;20080;-69
2021/12/26 01:47:18;;;;;;;6.82;5.43;;;4.40;99.90;;;;;;5010736;28;20053;-68
2021/12/26 01:49:44;;;;;;;;;;;4.40;99.90;;;;;;4991697;28;20045;-69
2021/12/26 01:52:11;;;;;;;5.95;5.30;;;4.40;99.90;;;;;;4994861;28;20403;-68
2021/12/26 01:54:44;;;;;;;6.07;5.38;;;4.40;99.90;;;;;;4994042;28;20093;-69
2021/12/26 01:57:15;;;;;;;10.02;6.97;;;4.40;99.90;;;;;;5010041;28;20046;-69
2021/12/26 01:59:46;;;;;;;5.78;5.10;;;4.40;99.90;;;;;;4993294;28;20449;-68
2021/12/26 02:02:21;;;;;;;8.40;5.70;;;4.30;99.90;;;;;;5010391;28;20074;-69
2021/12/26 02:04:49;;;;;;;8.27;5.85;;;4.30;99.90;;;;;;5010342;28;20141;-69
2021/12/26 02:07:19;;;;;;;6.60;5.68;;;4.30;99.90;;;;;;4993776;28;20809;-69
2021/12/26 02:09:47;;;;;;;10.80;5.78;;;4.30;99.90;;;;;;4994375;28;20052;-69
2021/12/26 02:12:18;;;;;;;8.70;5.45;;;4.30;99.90;;;;;;4993738;28;20574;-69
2021/12/26 02:14:45;;;;;;;6.07;5.00;;;4.30;99.90;;;;;;4994313;28;20136;-69
2021/12/26 02:17:22;;;;;;;5.97;4.85;;;4.30;99.90;;;;;;5008767;28;20041;-69
2021/12/26 02:19:50;;;;;;;;;;;4.30;99.90;;;;;;4993475;28;20124;-69
2021/12/26 02:22:26;;;;;;;4.75;4.22;;;4.30;99.90;;;;;;4994045;28;19931;-69
2021/12/26 02:27:31;;;;;;;8.02;5.93;;;4.30;99.90;;;;;;5011164;28;20057;-69
2021/12/26 02:30:11;;;;;;;6.25;5.50;;;4.30;99.90;;;;;;5009512;28;20046;-69
2021/12/26 02:32:40;;;;;;;8.85;6.28;;;4.30;99.90;;;;;;5010259;28;20066;-69
2021/12/26 02:35:07;;;;;;;;;;;4.20;99.90;;;;;;4995746;28;20508;-69
2021/12/26 02:37:34;;;;;;;6.85;5.55;;;4.30;99.90;;;;;;4993809;28;20003;-69
2021/12/26 02:40:01;;;;;;;;;;;4.20;99.90;;;;;;4997476;28;20041;-69
2021/12/26 02:42:28;;;;;;;6.50;5.60;;;4.20;99.90;;;;;;5031232;28;19936;-69
2021/12/26 02:44:55;;;;;;;6.78;6.07;;;4.20;99.90;;;;;;4999216;28;20061;-69
2021/12/26 02:47:34;;;;;;;;;;;4.20;99.90;;;;;;4985037;28;20042;-69
2021/12/26 02:50:04;;;;;;;7.28;5.78;;;4.20;99.90;;;;;;4991246;28;19944;-69
2021/12/26 02:52:31;;;;;;;7.05;5.85;;;4.30;99.90;;;;;;4998029;28;20057;-69
2021/12/26 02:54:59;;;;;;;;;;;4.20;99.90;;;;;;5002853;28;20103;-69
2021/12/26 02:57:26;;;;;;;10.18;7.43;;;4.20;99.90;;;;;;5013841;28;20429;-69
2021/12/26 02:59:53;;;;;;;7.40;6.47;;;4.20;99.90;;;;;;4996738;28;20289;-69
2021/12/26 03:02:20;;;;;;;;;;;4.20;99.90;;;;;;4999164;28;20065;-69
2021/12/26 03:04:47;;;;;;;8.77;6.60;;;4.20;99.90;;;;;;4997196;28;20331;-69
2021/12/26 03:07:16;;;;;;;9.20;7.93;;;4.20;99.90;;;;;;5013523;28;20542;-69
2021/12/26 03:09:48;;;;;;;8.30;6.55;;;4.20;99.90;;;;;;4997884;28;20057;-69
2021/12/26 03:12:15;;;;;;;9.75;7.93;;;4.20;99.90;;;;;;4998038;28;20418;-69
2021/12/26 03:14:42;;;;;;;10.07;7.35;;;4.20;99.90;;;;;;4996936;28;20045;-69
2021/12/26 03:17:10;;;;;;;8.63;6.90;;;4.20;99.90;;;;;;5011003;28;20042;-69
2021/12/26 03:19:37;;;;;;;8.32;6.70;;;4.20;99.90;;;;;;4995818;28;20136;-69
2021/12/26 03:22:04;;;;;;;;;;;4.20;99.90;;;;;;4997501;28;20314;-69
2021/12/26 03:24:32;;;;;;;6.13;5.53;;;4.20;99.90;;;;;;4998380;28;19925;-68
2021/12/26 03:27:00;;;;;;;6.72;6.03;;;4.20;99.90;;;;;;4997302;28;20519;-69
2021/12/26 03:29:31;;;;;;;8.40;6.15;;;4.20;99.90;;;;;;5012451;28;20042;-69
2021/12/26 03:31:58;;;;;;;7.13;6.07;;;4.20;99.90;;;;;;4996396;28;20046;-69
2021/12/26 03:34:25;;;;;;;8.48;6.82;;;4.20;99.90;;;;;;4998149;28;20112;-69
2021/12/26 03:36:56;;;;;;;7.15;5.60;;;4.20;99.90;;;;;;5013430;28;20195;-69
2021/12/26 03:39:25;;;;;;;11.13;6.30;;;4.30;99.90;;;;;;5011663;28;20050;-69
2021/12/26 03:41:53;;;;;;;7.13;5.68;;;4.30;99.90;;;;;;5012950;28;20054;-69
2021/12/26 03:44:20;;;;;;;8.43;6.63;;;4.30;99.90;;;;;;4996690;28;20056;-69
2021/12/26 03:46:49;;;;;;;8.05;7.13;;;4.30;99.90;;;;;;4995733;28;20104;-68
2021/12/26 03:49:16;;;;;;;7.90;6.00;;;4.30;99.90;;;;;;5009742;28;20041;-68
2021/12/26 03:51:43;;;;;;;5.47;4.75;;;4.20;99.90;;;;;;4995783;28;20042;-68
2021/12/26 03:54:11;;;;;;;6.13;5.10;;;4.20;99.90;;;;;;5012108;28;20041;-68
2021/12/26 03:56:40;;;;;;;5.53;4.75;;;4.20;99.90;;;;;;5012378;28;20530;-69
2021/12/26 03:59:13;;;;;;;6.70;5.03;;;4.30;99.90;;;;;;4995596;28;20665;-68
2021/12/26 04:01:42;;;;;;;5.03;4.10;;;4.30;99.90;;;;;;5001836;28;20077;-69
2021/12/26 04:04:09;;;;;;;4.53;3.83;;;4.30;99.90;;;;;;4977997;28;20052;-68
2021/12/26 04:06:38;;;;;;;5.28;3.42;;;4.30;99.90;;;;;;4978535;28;20057;-68
2021/12/26 04:09:07;;;;;;;4.00;3.60;;;4.30;99.90;;;;;;4992058;28;20519;-68
2021/12/26 04:11:36;;;;;;;4.97;3.30;;;4.30;99.90;;;;;;4977529;28;20104;-69
2021/12/26 04:14:03;;;;;;;3.40;2.72;;;4.30;99.90;;;;;;4977847;28;20034;-69
2021/12/26 04:16:30;;;;;;;5.05;3.40;;;4.30;99.90;;;;;;4977709;28;20505;-69
2021/12/26 04:18:57;;;;;;;;;;;4.30;99.90;;;;;;4980311;28;20077;-69
2021/12/26 04:21:25;;;;;;;4.60;3.17;;;4.30;99.90;;;;;;4976059;28;19933;-68
2021/12/26 04:23:55;;;;;;;6.65;3.67;;;4.30;99.90;;;;;;4975897;28;20057;-69
2021/12/26 04:26:22;;;;;;;5.80;3.95;;;4.30;99.90;;;;;;4975824;28;20060;-68
2021/12/26 04:28:49;;;;;;;3.70;2.97;;;4.30;99.90;;;;;;4992550;28;20042;-69
2021/12/26 04:31:18;;;;;;;5.03;3.63;;;4.30;99.90;;;;;;4993091;28;20086;-69
2021/12/26 04:33:47;;;;;;;4.45;3.55;;;4.30;99.90;;;;;;4993334;28;20074;-69
2021/12/26 04:36:14;;;;;;;6.03;4.20;;;4.30;99.90;;;;;;4978559;28;20050;-69
2021/12/26 04:38:43;;;;;;;4.35;3.60;;;4.30;99.90;;;;;;4991727;28;20572;-69
2021/12/26 04:41:11;;;;;;;6.20;4.07;;;4.30;99.90;;;;;;4991766;28;20058;-69
2021/12/26 04:44:00;;;;;;;6.82;4.20;;;4.30;99.90;;;;;;4991762;28;20679;-69
2021/12/26 04:46:40;;;;;;;5.90;4.38;;;4.30;99.90;;;;;;4991605;28;20054;-68
2021/12/26 04:49:15;;;;;;;4.25;3.55;;;4.30;99.90;;;;;;4976801;28;20138;-68
2021/12/26 04:51:42;;;;;;;5.80;3.38;;;4.30;99.90;;;;;;4995637;28;20066;-68
2021/12/26 04:54:10;;;;;;;5.00;4.22;;;4.30;99.90;;;;;;5006292;28;20034;-68
2021/12/26 04:56:37;;;;;;;5.60;4.28;;;4.30;99.90;;;;;;4996544;28;20052;-68
2021/12/26 04:59:04;;;;;;;6.97;4.18;;;4.30;99.90;;;;;;5011244;28;20042;-69
2021/12/26 05:01:35;;;;;;;5.50;4.03;;;4.30;99.90;;;;;;5009929;28;20578;-67
2021/12/26 05:04:03;;;;;;;4.20;3.67;;;4.30;99.90;;;;;;4997170;28;20526;-68
2021/12/26 05:06:30;;;;;;;4.13;3.60;;;4.30;99.90;;;;;;4996848;28;20154;-68
2021/12/26 05:08:57;;;;;;;;;;;4.20;99.90;;;;;;4995788;28;20046;-68
2021/12/26 05:11:25;;;;;;;5.35;4.20;;;4.30;99.90;;;;;;4995529;28;20083;-68
2021/12/26 05:13:52;;;;;;;5.82;4.60;;;4.30;99.90;;;;;;4996218;28;20042;-68
2021/12/26 05:16:19;;;;;;;5.88;4.10;;;4.20;99.90;;;;;;4995003;28;20057;-68
2021/12/26 05:18:46;;;;;;;4.10;3.40;;;4.20;99.90;;;;;;5009567;28;20061;-68
2021/12/26 05:21:13;;;;;;;4.28;3.88;;;4.20;99.90;;;;;;4994719;28;20065;-68
2021/12/26 05:23:40;;;;;;;4.28;3.83;;;4.20;99.90;;;;;;5010626;28;20037;-68
2021/12/26 05:26:07;;;;;;;5.72;4.80;;;4.20;99.90;;;;;;4994113;28;20081;-68
2021/12/26 05:28:34;;;;;;;4.18;3.55;;;4.20;99.90;;;;;;5011328;28;20050;-68
2021/12/26 05:31:03;;;;;;;6.03;4.28;;;4.20;99.90;;;;;;4993013;28;20045;-68
2021/12/26 05:33:37;;;;;;;6.95;4.97;;;4.20;99.90;;;;;;5010906;28;20042;-68
2021/12/26 05:36:04;;;;;;;;;;;4.20;99.90;;;;;;5011062;28;20046;-69
2021/12/26 05:38:34;;;;;;;6.30;5.43;;;4.20;99.90;;;;;;5009901;28;19925;-68
2021/12/26 05:41:02;;;;;;;6.15;4.45;;;4.30;99.90;;;;;;4993985;28;20053;-68
2021/12/26 05:43:31;;;;;;;5.78;4.40;;;4.30;99.90;;;;;;5010197;28;20046;-68
2021/12/26 05:45:59;;;;;;;5.38;4.72;;;4.20;99.90;;;;;;5010539;28;20123;-70
2021/12/26 05:48:28;;;;;;;6.15;4.63;;;4.20;99.90;;;;;;4992233;28;20049;-67
2021/12/26 05:50:54;;;;;;;;;;;4.30;99.90;;;;;;4990079;28;20052;-68
2021/12/26 05:53:44;;;;;;;5.13;4.35;;;4.30;99.90;;;;;;4995097;28;20427;-68
2021/12/26 05:56:11;;;;;;;5.57;4.68;;;4.30;99.90;;;;;;4994622;28;20349;-68
2021/12/26 05:58:38;;;;;;;5.93;4.65;;;4.20;99.90;;;;;;4994591;28;20056;-67
2021/12/26 06:01:05;;;;;;;5.03;4.18;;;4.20;99.90;;;;;;5008954;28;20467;-67
2021/12/26 06:03:34;;;;;;;6.03;4.53;;;4.20;99.90;;;;;;5010443;28;20049;-68
2021/12/26 06:06:01;;;;;;;7.38;4.97;;;4.20;99.90;;;;;;5010454;28;20131;-67
2021/12/26 06:08:37;;;;;;;6.03;4.47;;;4.20;99.90;;;;;;4993555;28;20046;-67
2021/12/26 06:11:03;;;;;;;;;;;4.20;99.90;;;;;;4995671;28;20045;-66
2021/12/26 06:13:32;;;;;;;6.18;5.13;;;4.20;99.90;;;;;;4994970;28;20011;-67
2021/12/26 06:15:59;;;;;;;5.03;4.10;;;4.20;99.90;;;;;;5014178;28;20069;-67
2021/12/26 06:18:27;;;;;;;6.57;4.05;;;4.20;99.90;;;;;;5012085;28;20046;-67
2021/12/26 06:21:12;;;;;;;4.75;4.00;;;4.20;99.90;;;;;;4999552;28;20115;-68
2021/12/26 06:23:50;;;;;;;4.78;4.18;;;4.20;99.90;;;;;;4998620;28;20046;-67
2021/12/26 06:26:36;;;;;;;4.72;3.47;;;4.20;99.90;;;;;;5000170;28;20163;-69
2021/12/26 06:29:12;;;;;;;9.57;4.63;;;4.20;99.90;;;;;;4996845;28;20046;-68
2021/12/26 06:31:39;;;;;;;4.63;3.53;;;4.20;99.90;;;;;;4999267;28;20111;-68
2021/12/26 06:34:36;;;;;;;4.97;4.07;;;4.20;99.90;;;;;;4999092;28;20049;-68
2021/12/26 06:37:21;;;;;;;3.25;2.40;;;4.20;99.90;;;;;;4999011;28;20077;-68
2021/12/26 06:40:23;;;;;;;3.30;2.22;;;4.20;99.90;;;;;;4998971;28;20049;-68
2021/12/26 06:43:22;;;;;;;2.10;1.90;;;4.20;99.90;;;;;;4965255;28;20073;-66
2021/12/26 06:46:28;;;;;;;2.83;2.10;;;4.20;99.90;;;;;;4997985;28;20506;-67
2021/12/26 06:49:17;;;;;;;2.40;1.95;;;4.30;99.90;;;;;;4992264;28;20446;-59
2021/12/26 06:51:45;;;;;;;2.00;1.77;;;4.30;99.90;;;;;;4995888;28;20053;-60
2021/12/26 06:54:12;;;;;;;3.50;1.77;;;4.30;99.90;;;;;;4985454;28;20034;-60
2021/12/26 06:56:39;;;;;;;3.35;2.13;;;4.30;99.90;;;;;;4998982;28;20049;-59
2021/12/26 06:59:07;;;;;;;2.67;2.17;;;4.30;99.90;;;;;;5012154;28;20102;-59
2021/12/26 07:01:34;;;;;;;5.65;2.92;;;4.30;99.90;;;;;;4997377;28;20058;-59
2021/12/26 07:04:03;;;;;;;3.15;2.20;;;4.30;99.90;;;;;;5013606;28;20119;-59
2021/12/26 07:06:30;;;;;;;3.22;2.42;;;4.30;99.90;;;;;;5013371;28;20083;-59
2021/12/26 07:09:04;;;;;;;5.55;2.70;;;4.40;99.90;;;;;;5012764;28;20049;-60
2021/12/26 07:11:31;;;;;;;2.70;2.50;;;4.40;99.90;;;;;;4996755;28;20062;-60
2021/12/26 07:13:58;;;;;;;2.17;2.03;;;4.30;99.90;;;;;;4996337;28;20046;-59
2021/12/26 07:16:25;;;;;;;;;;;4.40;99.90;;;;;;5013620;28;20048;-59
2021/12/26 07:18:52;;;;;;;3.83;2.23;;;4.30;99.90;;;;;;5010074;28;19925;-60
2021/12/26 07:21:25;;;;;;;1.77;1.67;;;4.30;99.90;;;;;;5012836;28;20265;-60
2021/12/26 07:23:56;;;;;;;1.40;1.30;;;4.30;99.90;;;;;;5013460;28;20053;-59
2021/12/26 07:26:24;;;;;;;3.70;1.55;;;4.30;99.90;;;;;;5012598;28;20085;-59
2021/12/26 07:28:51;;;;;;;5.25;4.18;;;4.30;99.90;;;;;;4996163;28;20176;-59
2021/12/26 07:31:23;;;;;;;4.55;3.58;;;4.30;99.90;;;;;;4996742;28;20042;-59
2021/12/26 07:33:55;;;;;;;5.32;3.08;;;4.30;99.90;;;;;;5012943;28;20046;-59
2021/12/26 07:36:26;;;;;;;3.03;2.15;;;4.30;99.90;;;;;;4996248;28;20061;-59
2021/12/26 07:39:01;;;;;;;2.10;2.00;;;4.40;99.90;;;;;;4997381;28;20042;-60
2021/12/26 07:41:30;;;;;;;8.45;4.30;;;4.30;99.90;;;;;;4997370;28;20148;-60
2021/12/26 07:43:58;;;;;;;5.57;3.40;;;4.30;99.90;;;;;;5012274;28;20042;-60
2021/12/26 07:46:44;;;;;;;3.95;3.33;;;4.30;99.90;;;;;;4998796;28;20171;-59
2021/12/26 07:49:19;;;;;;;5.22;4.63;;;4.30;99.90;;;;;;5012880;28;20046;-60
2021/12/26 07:52:11;;;;;;;7.60;6.47;;;4.30;99.90;;;;;;4979512;28;20106;-60
2021/12/26 07:54:56;;;;;;;7.35;5.72;;;4.30;99.90;;;;;;4993468;28;20064;-59
2021/12/26 07:57:48;;;;;;;6.03;5.30;;;4.30;99.90;;;;;;4997672;28;20099;-60
2021/12/26 08:00:36;;;;;;;7.70;6.57;;;4.30;99.90;;;;;;4975308;28;20965;-60
2021/12/26 08:03:16;;;;;;;6.80;5.88;;;4.30;99.90;;;;;;5012993;28;20135;-60
2021/12/26 08:06:02;;;;;;;5.63;5.13;;;4.40;99.90;;;;;;4997545;28;20125;-60
2021/12/26 08:08:50;;;;;;;3.92;3.53;;;4.40;99.90;;;;;;4995760;28;20152;-60
2021/12/26 08:11:17;;;;;;;4.07;3.20;;;4.40;99.90;;;;;;5012301;28;20049;-60
2021/12/26 08:13:44;;;;;;;;;;;4.40;99.90;;;;;;4995125;28;20508;-60
2021/12/26 08:16:10;;;;;;;2.85;2.60;;;4.40;99.90;;;;;;4997359;28;19979;-60
2021/12/26 08:18:37;;;;;;;2.60;2.30;;;4.40;99.90;;;;;;4995094;28;20500;-60
2021/12/26 08:21:04;;;;;;;;;;;4.40;99.90;;;;;;4996900;28;20054;-60
2021/12/26 08:23:31;;;;;;;2.05;1.40;;;4.40;99.90;;;;;;4997574;28;19968;-60
2021/12/26 08:25:58;;;;;;;;;;;4.40;99.90;;;;;;4997785;28;20265;-61
2021/12/26 08:28:25;;;;;;;1.15;1.05;;;4.40;99.90;;;;;;4997017;28;20441;-60
2021/12/26 08:30:52;;;;;;;1.98;1.58;;;4.50;99.90;;;;;;4996811;28;20092;-60
2021/12/26 08:33:19;;;;;;;0.88;0.88;;;4.50;99.90;;;;;;4997469;28;20357;-60
2021/12/26 08:35:47;;;;;;;;;;;4.50;99.90;;;;;;5011373;28;20042;-60
2021/12/26 08:38:15;;;;;;;0.80;0.80;;;4.50;99.90;;;;;;4997112;28;19983;-60
2021/12/26 08:40:43;;;;;;;1.23;1.05;;;4.60;99.90;;;;;;4997071;28;20474;-61
2021/12/26 08:43:10;;;;;;;1.08;0.90;;;4.60;99.90;;;;;;5010754;28;20844;-60
2021/12/26 08:45:37;;;;;;;;;;;4.60;99.90;;;;;;4997315;28;20461;-60
2021/12/26 08:48:05;;;;;;;3.95;2.60;;;4.60;99.90;;;;;;4990899;28;19932;-57
2021/12/26 08:50:32;;;;;;;10.68;5.22;;;4.70;99.90;;;;;;4990421;28;20046;-57
2021/12/26 08:52:59;;;;;;;9.90;5.22;;;4.70;99.90;;;;;;4998214;28;20699;-58
2021/12/26 08:55:26;;;;;;;9.43;4.72;;;4.70;99.90;;;;;;4997453;28;20719;-57
2021/12/26 08:57:53;;;;;;;;;;;4.80;99.90;;;;;;4984101;28;20528;-57
2021/12/26 09:00:21;;;;;;;5.10;2.75;;;4.80;99.90;;;;;;4977531;28;20434;-58
2021/12/26 09:02:49;;;;;;;2.97;1.77;;;4.80;99.90;;;;;;4977718;28;20085;-61
2021/12/26 09:05:16;;;;;;;3.05;1.65;;;4.80;99.90;;;;;;4976562;28;20042;-61
2021/12/26 09:07:43;;;;;;;3.88;2.13;;;4.80;99.90;;;;;;4992368;28;20105;-61
2021/12/26 09:10:12;;;;;;;2.78;1.85;;;4.90;99.90;;;;;;4976302;28;20524;-61
2021/12/26 09:12:40;;;;;;;2.15;1.20;;;4.90;99.90;;;;;;4975937;28;20042;-58
2021/12/26 09:15:09;;;;;;;3.22;1.30;;;4.90;99.90;;;;;;5000191;28;20050;-58
2021/12/26 09:17:35;;;;;;;2.05;1.10;;;4.90;99.90;;;;;;4993587;28;20108;-59
2021/12/26 09:20:04;;;;;;;4.30;0.98;;;4.90;99.90;;;;;;4994813;28;20129;-58
2021/12/26 09:22:32;;;;;;;1.58;1.20;;;5.00;99.90;;;;;;4995610;28;20050;-56
2021/12/26 09:24:59;;;;;;;;;;;5.00;99.90;;;;;;4996998;28;20606;-57
2021/12/26 09:27:26;;;;;;;2.03;1.38;;;5.00;99.90;;;;;;4995300;28;19932;-57
2021/12/26 09:29:53;;;;;;;1.52;1.23;;;5.00;99.90;;;;;;4995300;28;20803;-57
2021/12/26 09:32:23;;;;;;;2.60;1.67;;;5.10;99.90;;;;;;4996502;28;20045;-57
2021/12/26 09:34:49;;;;;;;4.07;1.55;;;5.10;99.90;;;;;;4995763;28;20042;-58
2021/12/26 09:37:16;;;;;;;1.70;1.40;;;5.10;99.90;;;;;;4996056;28;20050;-59
2021/12/26 09:39:43;;;;;;;;;;;5.20;99.90;;;;;;4995636;28;20049;-60
2021/12/26 09:42:10;;;;;;;1.95;1.52;;;5.20;99.90;;;;;;4995111;28;19925;-57
2021/12/26 09:44:38;;;;;;;1.30;1.00;;;5.30;99.90;;;;;;4995611;28;20424;-57
2021/12/26 09:47:05;;;;;;;2.20;1.40;;;5.30;99.90;;;;;;5027191;28;20658;-59
2021/12/26 09:49:33;;;;;;;3.38;1.73;;;5.30;99.90;;;;;;4988529;28;20551;-58
2021/12/26 09:51:59;;;;;;;7.60;3.10;;;5.30;99.90;;;;;;4995223;28;20046;-57
2021/12/26 09:54:26;;;;;;;;;;;5.40;99.90;;;;;;4996522;28;20111;-57
2021/12/26 09:56:53;;;;;;;6.78;3.05;;;5.40;99.90;;;;;;4993711;28;20062;-57
2021/12/26 09:59:21;;;;;;;;;;;5.40;99.90;;;;;;4995570;28;20407;-57
2021/12/26 10:02:00;;;;;;;11.55;5.50;;;5.40;99.90;;;;;;4996398;28;20469;-59
2021/12/26 10:04:46;;;;;;;8.02;4.03;;;5.40;99.90;;;;;;4995164;28;20220;-57
2021/12/26 10:07:16;;;;;;;3.90;2.35;;;5.40;99.90;;;;;;5010553;28;20427;-56
2021/12/26 10:09:46;;;;;;;3.25;2.25;;;5.50;99.90;;;;;;4994740;28;20050;-60
2021/12/26 10:12:15;;;;;;;3.45;2.38;;;5.50;99.90;;;;;;5009879;28;20066;-60
2021/12/26 10:14:46;;;;;;;2.60;1.80;;;5.50;99.90;;;;;;4995478;28;20132;-58
2021/12/26 10:17:17;;;;;;;2.85;1.42;;;5.50;99.90;;;;;;4988666;28;20049;-59
2021/12/26 10:19:46;;;;;;;2.70;1.50;;;5.60;99.90;;;;;;4986191;28;20046;-57
2021/12/26 10:22:21;;;;;;;2.03;1.50;;;5.60;99.90;;;;;;4995126;28;20068;-57
2021/12/26 10:24:49;;;;;;;2.88;1.83;;;5.60;99.90;;;;;;5009747;28;20050;-57
2021/12/26 10:27:31;;;;;;;6.78;2.47;;;5.60;99.90;;;;;;4994797;28;20042;-57
2021/12/26 10:30:00;;;;;;;2.40;1.40;;;5.70;99.90;;;;;;4994910;28;20046;-57
2021/12/26 10:32:31;;;;;;;3.58;1.88;;;5.70;99.90;;;;;;4995401;28;20187;-60
2021/12/26 10:35:04;;;;;;;2.97;2.13;;;5.70;99.90;;;;;;4994817;28;20293;-60
2021/12/26 10:37:40;;;;;;;3.85;2.13;;;5.70;99.90;;;;;;4993772;28;20046;-59
2021/12/26 10:40:11;;;;;;;2.17;1.45;;;5.80;99.90;;;;;;5009358;28;20488;-60
2021/12/26 10:42:44;;;;;;;3.28;1.92;;;5.80;99.90;;;;;;5008619;28;20135;-56
2021/12/26 10:45:14;;;;;;;2.03;1.60;;;5.80;99.90;;;;;;5009530;28;20058;-58
2021/12/26 10:47:44;;;;;;;3.58;1.50;;;5.90;99.90;;;;;;4995754;28;20125;-59
2021/12/26 10:50:12;;;;;;;1.35;1.10;;;5.90;99.90;;;;;;4989594;28;20096;-59
2021/12/26 10:52:50;;;;;;;1.50;1.25;;;6.00;99.90;;;;;;5001672;28;20034;-59
2021/12/26 10:55:20;;;;;;;1.42;1.27;;;6.00;99.90;;;;;;4988567;28;20484;-59
2021/12/26 10:57:50;;;;;;;1.55;1.40;;;6.10;99.90;;;;;;4975785;28;20046;-59
2021/12/26 11:00:33;;;;;;;1.88;1.60;;;6.10;99.90;;;;;;4977092;28;20054;-59
2021/12/26 11:03:06;;;;;;;2.42;1.70;;;6.20;99.90;;;;;;4979205;28;20058;-59
2021/12/26 11:05:38;;;;;;;4.07;1.70;;;6.20;99.90;;;;;;4979398;28;20413;-59
2021/12/26 11:08:12;;;;;;;2.22;1.80;;;6.20;99.90;;;;;;4979573;28;20050;-59
2021/12/26 11:10:45;;;;;;;2.05;1.77;;;6.20;99.90;;;;;;4978827;28;20053;-59
2021/12/26 11:13:31;;;;;;;4.15;2.60;;;6.20;99.90;;;;;;4978657;28;20054;-59
2021/12/26 11:16:06;;;;;;;3.17;1.80;;;6.20;99.90;;;;;;4979807;28;20046;-59
2021/12/26 11:18:35;;;;;;;2.65;2.15;;;6.30;99.90;;;;;;4983370;28;20048;-59
2021/12/26 11:21:11;;;;;;;2.92;1.98;;;6.30;99.90;;;;;;4998825;28;20046;-59
2021/12/26 11:23:41;;;;;;;2.97;2.03;;;6.30;99.90;;;;;;4998756;28;20054;-59
2021/12/26 11:26:25;;;;;;;2.80;2.10;;;6.30;99.90;;;;;;4998299;28;20673;-59
2021/12/26 11:28:53;;;;;;;3.22;2.53;;;6.30;99.90;;;;;;4998225;28;20079;-60
2021/12/26 11:31:27;;;;;;;2.50;2.00;;;6.20;99.90;;;;;;4996955;28;20643;-59
2021/12/26 11:33:59;;;;;;;2.83;2.03;;;6.30;99.90;;;;;;4996679;28;20045;-59
2021/12/26 11:36:29;;;;;;;2.92;2.22;;;6.30;99.90;;;;;;4995916;28;20042;-59
2021/12/26 11:39:18;;;;;;;3.00;2.25;;;6.30;99.90;;;;;;4976536;28;20046;-59
2021/12/26 11:42:16;;;;;;;2.53;1.63;;;6.30;99.90;;;;;;4977858;28;20132;-59
2021/12/26 11:45:18;;;;;;;3.58;2.20;;;6.30;99.90;;;;;;4979066;28;20081;-60
2021/12/26 11:48:43;;;;;;;4.35;2.88;;;6.40;99.90;;;;;;4977332;28;20060;-59
2021/12/26 11:51:43;;;;;;;4.80;2.85;;;6.40;99.90;;;;;;4993732;28;21076;-59
2021/12/26 11:55:07;;;;;;;3.75;2.90;;;6.40;99.90;;;;;;4998377;28;20072;-59
2021/12/26 11:57:59;;;;;;;3.17;2.42;;;6.40;99.90;;;;;;5012777;28;20056;-59
2021/12/26 12:00:38;;;;;;;7.55;2.80;;;6.40;99.90;;;;;;4998119;28;20100;-59
2021/12/26 12:03:17;;;;;;;2.92;2.20;;;6.40;99.90;;;;;;4995786;28;20052;-57
2021/12/26 12:05:45;;;;;;;3.83;2.63;;;6.40;99.90;;;;;;4995893;28;20140;-61
2021/12/26 12:08:24;;;;;;;4.15;2.95;;;6.40;99.90;;;;;;4998544;28;20054;-61
2021/12/26 12:10:56;;;;;;;3.75;2.55;;;6.40;99.90;;;;;;4995870;28;20099;-60
2021/12/26 12:13:26;;;;;;;4.43;2.90;;;6.40;99.90;;;;;;4998547;28;20120;-61
2021/12/26 12:15:53;;;;;;;5.00;2.65;;;6.40;99.90;;;;;;4997629;28;20099;-61
2021/12/26 12:18:19;;;;;;;;;;;6.40;99.90;;;;;;4996050;28;20042;-61
2021/12/26 12:20:47;;;;;;;3.15;2.85;;;6.40;99.90;;;;;;4997122;28;19926;-61
2021/12/26 12:23:17;;;;;;;3.17;2.50;;;6.40;99.90;;;;;;5012962;28;20057;-61
2021/12/26 12:25:49;;;;;;;3.05;2.72;;;6.40;99.90;;;;;;4997206;28;20824;-61
2021/12/26 12:28:26;;;;;;;4.72;2.78;;;6.50;99.90;;;;;;4997637;28;20068;-60
2021/12/26 12:31:14;;;;;;;3.90;2.60;;;6.50;99.90;;;;;;5012403;28;20053;-61
2021/12/26 12:33:42;;;;;;;3.55;2.75;;;6.50;99.90;;;;;;4996646;28;20056;-61
2021/12/26 12:36:27;;;;;;;3.13;2.65;;;6.50;99.90;;;;;;4997646;28;20060;-61
2021/12/26 12:39:19;;;;;;;3.40;2.30;;;6.50;99.90;;;;;;4996941;28;20558;-60
2021/12/26 12:41:48;;;;;;;3.38;2.90;;;6.50;99.90;;;;;;4997150;28;20053;-61
2021/12/26 12:44:31;;;;;;;5.07;2.30;;;6.50;99.90;;;;;;4997545;28;20049;-61
2021/12/26 12:47:14;;;;;;;2.75;2.28;;;6.50;99.90;;;;;;5012357;28;20045;-61
2021/12/26 12:49:50;;;;;;;3.40;2.70;;;6.50;99.90;;;;;;4990605;28;20076;-60
2021/12/26 12:52:45;;;;;;;4.38;2.03;;;6.50;99.90;;;;;;5012468;28;20104;-61
2021/12/26 12:55:18;;;;;;;3.58;2.95;;;6.50;99.90;;;;;;4996214;28;20034;-61
2021/12/26 12:57:52;;;;;;;3.00;2.40;;;6.50;99.90;;;;;;4997326;28;20048;-60
2021/12/26 13:00:25;;;;;;;3.17;2.50;;;6.50;99.90;;;;;;4996752;28;20042;-60
2021/12/26 13:02:57;;;;;;;4.18;2.17;;;6.50;99.90;;;;;;4996263;28;20045;-57
2021/12/26 13:05:30;;;;;;;2.90;2.40;;;6.50;99.90;;;;;;4997422;28;20072;-58
2021/12/26 13:07:59;;;;;;;4.22;3.10;;;6.50;99.90;;;;;;4997210;28;20496;-57
2021/12/26 13:10:26;;;;;;;5.50;3.97;;;6.60;99.90;;;;;;4996121;28;20470;-60
2021/12/26 13:13:08;;;;;;;4.45;3.17;;;6.60;99.90;;;;;;4996803;28;20125;-59
2021/12/26 13:15:48;;;;;;;5.43;3.00;;;6.60;99.90;;;;;;4997170;28;20722;-60
2021/12/26 13:18:15;;;;;;;3.72;2.55;;;6.60;99.90;;;;;;4992066;28;20077;-57
2021/12/26 13:20:42;;;;;;;3.15;2.55;;;6.60;99.90;;;;;;4995912;28;20571;-58
2021/12/26 13:23:09;;;;;;;4.28;2.85;;;6.60;99.90;;;;;;4996375;28;20108;-58
2021/12/26 13:25:45;;;;;;;2.90;2.67;;;6.60;99.90;;;;;;4995378;28;20049;-58
2021/12/26 13:28:14;;;;;;;3.78;2.47;;;6.70;99.90;;;;;;4997162;28;20050;-57
2021/12/26 13:30:43;;;;;;;4.38;2.67;;;6.70;99.90;;;;;;4995344;28;20048;-58
2021/12/26 13:33:31;;;;;;;3.00;2.70;;;6.80;99.90;;;;;;5010946;28;20045;-58